createdAt,value
2019-04-22T00:04:32.314Z,45.07
2019-04-22T00:09:51.477Z,45.73
2019-04-22T00:14:52.559Z,46.00
2019-04-22T00:20:06.064Z,49.67
2019-04-22T00:25:17.682Z,50.40
2019-04-22T00:30:16.509Z,48.47
2019-04-22T00:35:20.610Z,47.50
2019-04-22T00:40:32.294Z,47.20
2019-04-22T00:45:36.189Z,45.77
2019-04-22T00:50:42.018Z,45.93
2019-04-22T00:55:53.875Z,44.60
2019-04-22T01:01:01.657Z,42.90
2019-04-22T01:06:03.037Z,44.43
2019-04-22T01:11:13.180Z,44.60
2019-04-22T01:16:21.635Z,44.97
2019-04-22T01:21:27.499Z,46.78
2019-04-22T01:26:21.286Z,46.77
2019-04-22T01:31:19.124Z,46.90
2019-04-22T01:36:35.337Z,45.57
2019-04-22T01:41:55.106Z,45.10
2019-04-22T01:47:08.178Z,46.00
2019-04-22T01:57:20.806Z,44.93
2019-04-22T02:02:14.384Z,44.93
2019-04-22T02:07:19.375Z,44.77
2019-04-22T02:12:21.374Z,44.47
2019-04-22T02:17:32.817Z,44.83
2019-04-22T02:22:54.177Z,48.07
2019-04-22T02:27:43.202Z,47.10
2019-04-22T02:33:03.852Z,43.87
2019-04-22T02:38:02.036Z,43.20
2019-04-22T02:43:01.338Z,43.57
2019-04-22T02:48:18.367Z,42.80
2019-04-22T02:53:17.457Z,42.33
2019-04-22T02:58:16.842Z,42.13
2019-04-22T03:13:40.480Z,42.67
2019-04-22T03:18:59.426Z,44.67
2019-04-22T03:24:14.295Z,43.58
2019-04-22T03:34:22.617Z,42.73
2019-04-22T03:39:15.426Z,43.27
2019-04-22T03:49:23.057Z,41.67
2019-04-22T03:54:31.272Z,40.40
2019-04-22T03:59:29.677Z,41.40
2019-04-22T04:09:32.547Z,40.30
2019-04-22T04:14:50.733Z,40.63
2019-04-22T04:20:06.487Z,40.73
2019-04-22T04:30:05.525Z,42.57
2019-04-22T04:45:26.566Z,44.27
2019-04-22T04:50:12.155Z,44.90
2019-04-22T04:55:26.235Z,45.87
2019-04-22T05:00:37.298Z,47.13
2019-04-22T05:05:26.694Z,48.30
2019-04-22T05:20:55.533Z,49.87
2019-04-22T05:25:41.097Z,49.80
2019-04-22T05:30:47.320Z,49.43
2019-04-22T05:35:56.354Z,50.63
2019-04-22T05:41:02.693Z,52.38
2019-04-22T05:46:04.266Z,51.50
2019-04-22T05:51:09.771Z,53.63
2019-04-22T05:56:28.452Z,53.38
2019-04-22T06:01:40.345Z,53.92
2019-04-22T06:06:29.268Z,54.35
2019-04-22T06:11:33.550Z,55.60
2019-04-22T06:21:50.039Z,55.25
2019-04-22T06:27:04.472Z,55.92
2019-04-22T06:32:17.486Z,54.50
2019-04-22T06:37:08.699Z,52.83
2019-04-22T06:42:08.926Z,52.43
2019-04-22T06:47:21.656Z,51.70
2019-04-22T06:52:17.782Z,50.40
2019-04-22T06:57:25.368Z,49.95
2019-04-22T07:02:32.154Z,50.85
2019-04-22T07:07:34.835Z,50.33
2019-04-22T07:12:42.632Z,49.03
2019-04-22T07:17:50.780Z,48.77
2019-04-22T07:22:58.673Z,48.57
2019-04-22T07:38:10.870Z,47.90
2019-04-22T07:43:11.638Z,48.03
2019-04-22T07:48:27.929Z,47.93
2019-04-22T07:53:23.287Z,47.80
2019-04-22T08:03:37.856Z,48.30
2019-04-22T08:08:35.604Z,48.30
2019-04-22T08:13:40.615Z,48.57
2019-04-22T08:18:47.324Z,48.40
2019-04-22T08:23:57.545Z,47.93
2019-04-22T08:29:02.341Z,49.30
2019-04-22T08:34:12.205Z,48.77
2019-04-22T08:39:15.455Z,49.33
2019-04-22T08:44:17.494Z,49.97
2019-04-22T08:49:30.666Z,50.53
2019-04-22T08:54:26.076Z,51.30
2019-04-22T08:59:31.524Z,50.07
2019-04-22T09:04:39.137Z,50.67
2019-04-22T09:09:44.462Z,51.10
2019-04-22T09:14:45.871Z,50.97
2019-04-22T09:19:55.902Z,50.33
2019-04-22T09:24:57.518Z,49.57
2019-04-22T09:30:10.240Z,51.03
2019-04-22T09:35:10.209Z,50.73
2019-04-22T09:40:15.584Z,50.07
2019-04-22T09:45:15.473Z,50.53
2019-04-22T09:50:33.216Z,50.67
2019-04-22T09:55:31.193Z,50.27
2019-04-22T10:00:46.178Z,49.67
2019-04-22T10:05:49.928Z,50.97
2019-04-22T10:11:00.785Z,49.57
2019-04-22T10:16:03.149Z,48.83
2019-04-22T10:21:00.740Z,48.83
2019-04-22T10:26:14.297Z,48.67
2019-04-22T10:31:21.904Z,48.47
2019-04-22T10:35:55.207Z,48.87
2019-04-22T10:41:00.828Z,49.44
2019-04-22T10:46:06.120Z,49.80
2019-04-22T10:51:10.656Z,48.93
2019-04-22T10:56:14.905Z,48.47
2019-04-22T11:01:18.687Z,48.43
2019-04-22T11:06:23.325Z,48.53
2019-04-22T11:11:38.468Z,48.97
2019-04-22T11:16:32.543Z,48.87
2019-04-22T11:21:36.279Z,48.43
2019-04-22T11:26:41.079Z,48.80
2019-04-22T11:31:46.345Z,49.00
2019-04-22T11:36:50.545Z,48.07
2019-04-22T11:41:55.945Z,48.23
2019-04-22T11:47:01.414Z,47.17
2019-04-22T11:52:07.310Z,47.67
2019-04-22T11:57:10.874Z,47.97
2019-04-22T12:02:17.668Z,47.03
2019-04-22T12:07:21.614Z,48.45
2019-04-22T12:12:25.630Z,48.43
2019-04-22T12:17:29.822Z,48.37
2019-04-22T12:22:33.948Z,47.83
2019-04-22T12:27:41.052Z,47.93
2019-04-22T12:32:45.546Z,47.00
2019-04-22T12:37:53.943Z,47.87
2019-04-22T12:42:55.454Z,48.53
2019-04-22T12:48:00.099Z,48.53
2019-04-22T12:53:10.461Z,47.27
2019-04-22T12:58:09.714Z,48.10
2019-04-22T13:03:13.781Z,49.20
2019-04-22T13:08:18.028Z,48.83
2019-04-22T13:13:23.016Z,49.30
2019-04-22T13:18:35.276Z,49.57
2019-04-22T13:23:32.162Z,49.67
2019-04-22T13:28:36.827Z,49.33
2019-04-22T13:33:41.072Z,49.00
2019-04-22T13:38:45.084Z,49.90
2019-04-22T13:43:49.294Z,49.40
2019-04-22T13:49:25.148Z,50.17
2019-04-22T13:59:13.617Z,50.17
2019-04-22T14:04:12.447Z,50.43
2019-04-22T14:09:18.168Z,48.87
2019-04-22T14:14:22.118Z,49.50
2019-04-22T14:19:29.832Z,48.80
2019-04-22T14:24:34.481Z,53.37
2019-04-22T14:29:39.660Z,55.83
2019-04-22T14:34:44.858Z,50.92
2019-04-22T14:39:49.116Z,49.87
2019-04-22T14:50:17.751Z,52.40
2019-04-22T14:55:14.951Z,51.53
2019-04-22T15:00:15.868Z,51.76
2019-04-22T15:05:19.622Z,51.50
2019-04-22T15:10:24.277Z,52.65
2019-04-22T15:15:31.189Z,53.17
2019-04-22T15:20:48.625Z,52.73
2019-04-22T15:25:50.731Z,53.67
2019-04-22T15:30:55.602Z,54.05
2019-04-22T15:35:59.275Z,53.38
2019-04-22T15:41:03.093Z,54.65
2019-04-22T15:46:07.661Z,54.67
2019-04-22T15:51:12.939Z,54.57
2019-04-22T15:56:16.860Z,55.23
2019-04-22T16:01:27.592Z,56.57
2019-04-22T16:06:26.240Z,55.57
2019-04-22T16:11:29.991Z,57.27
2019-04-22T16:16:34.783Z,55.23
2019-04-22T16:21:46.546Z,54.80
2019-04-22T16:26:46.597Z,54.58
2019-04-22T16:31:51.378Z,54.98
2019-04-22T16:36:56.613Z,55.70
2019-04-22T16:42:00.668Z,56.00
2019-04-22T16:47:05.821Z,55.23
2019-04-22T16:52:10.076Z,58.27
2019-04-22T16:57:15.663Z,57.03
2019-04-22T17:02:22.406Z,56.43
2019-04-22T17:07:26.509Z,57.27
2019-04-22T17:12:40.829Z,57.00
2019-04-22T17:17:36.208Z,56.70
2019-04-22T17:22:40.109Z,59.10
2019-04-22T17:27:43.888Z,57.93
2019-04-22T17:32:48.341Z,58.70
2019-04-22T17:38:01.744Z,59.10
2019-04-22T17:43:32.676Z,60.60
2019-04-22T17:48:23.973Z,58.87
2019-04-22T17:53:34.830Z,58.42
2019-04-22T17:58:43.573Z,59.73
2019-04-22T18:03:29.023Z,59.80
2019-04-22T18:08:45.247Z,58.13
2019-04-22T18:13:51.924Z,58.50
2019-04-22T18:19:00.642Z,59.97
2019-04-22T18:23:54.109Z,58.37
2019-04-22T18:29:07.500Z,60.20
2019-04-22T18:34:06.956Z,59.50
2019-04-22T18:39:22.622Z,61.23
2019-04-22T18:44:27.259Z,58.33
2019-04-22T18:49:28.020Z,58.63
2019-04-22T18:54:47.971Z,55.93
2019-04-22T18:59:34.634Z,55.07
2019-04-22T19:04:47.262Z,57.20
2019-04-22T19:10:10.576Z,54.73
2019-04-22T19:15:12.777Z,54.70
2019-04-22T19:20:15.510Z,54.20
2019-04-22T19:25:15.151Z,52.27
2019-04-22T19:30:22.330Z,54.30
2019-04-22T19:35:22.878Z,57.10
2019-04-22T19:40:50.523Z,59.23
2019-04-22T19:45:47.830Z,69.00
2019-04-22T19:50:58.880Z,55.48
2019-04-22T19:55:53.848Z,50.73
2019-04-22T20:01:08.883Z,51.95
2019-04-22T20:06:35.317Z,52.40
2019-04-22T20:11:38.577Z,51.87
2019-04-22T20:16:37.454Z,50.73
2019-04-22T20:21:51.798Z,51.43
2019-04-22T20:26:59.479Z,51.20
2019-04-22T20:31:59.184Z,51.87
2019-04-22T20:37:11.334Z,52.07
2019-04-22T20:42:23.392Z,52.80
2019-04-22T20:47:13.640Z,52.77
2019-04-22T20:52:26.455Z,51.63
2019-04-22T20:57:32.094Z,51.80
2019-04-22T21:02:23.730Z,51.73
2019-04-22T21:07:34.419Z,50.17
2019-04-22T21:12:35.452Z,49.13
2019-04-22T21:17:48.856Z,50.07
2019-04-22T21:22:58.790Z,50.73
2019-04-22T21:28:03.062Z,50.03
2019-04-22T21:32:58.013Z,50.10
2019-04-22T21:38:19.626Z,50.77
2019-04-22T21:43:18.514Z,50.83
2019-04-22T21:48:28.112Z,49.17
2019-04-22T21:53:33.313Z,50.60
2019-04-22T21:58:38.256Z,52.17
2019-04-22T22:03:42.916Z,49.08
2019-04-22T22:08:48.999Z,49.93
2019-04-22T22:13:51.977Z,50.93
2019-04-22T22:19:00.971Z,50.07
2019-04-22T22:24:05.639Z,49.67
2019-04-22T22:29:10.170Z,51.17
2019-04-22T22:34:13.648Z,50.33
2019-04-22T22:39:07.619Z,51.57
2019-04-22T22:44:11.552Z,51.17
2019-04-22T22:49:28.681Z,50.83
2019-04-22T22:54:35.003Z,51.33
2019-04-22T22:59:40.265Z,50.17
2019-04-22T23:04:45.406Z,50.33
2019-04-22T23:09:48.941Z,52.23
2019-04-22T23:14:54.135Z,50.37
2019-04-22T23:19:46.031Z,50.67
2019-04-22T23:25:21.451Z,51.50
2019-04-22T23:30:06.677Z,51.87
2019-04-22T23:35:23.104Z,50.88
2019-04-22T23:40:35.802Z,51.18
2019-04-22T23:45:43.370Z,50.63
2019-04-22T23:50:45.672Z,49.63
2019-04-22T23:55:50.668Z,49.80
